メインページ
METAR-TAF:

METAR-TAF

空港 :

アテネ国際空港

アテネ, ギリシャ

緯度: 37-56N, 経度: 023-56E, 海抜: 94m

現時点の気象観測

当レポートは25分前の08:50(UTC)に作成
北東の風 19kt
気温 28°C
湿度 30%
気圧 1015 hPa
視程10km以上
高度3000ftの雲はほとんどない

METAR: LGAV 200850Z 04019KT 9999 FEW030 28/09 Q1015 NOSIG

時間: 12:15 (09:15 UTC)

予報

当レポートは4時間15分前の05:00(UTC)に作成
予報は20日の 06時(UTC)から 21日の 06時(UTC)まで有効
北/北東の風 15kt
視程10km以上
高度3000ftの雲はほとんどない
20日の 09時(UTC)から 20日の 15時(UTC)まで一時的に
北/北東の風 15kt、最大25ktの突風を伴う

TAF: LGAV 200500Z 2006/2106 02015KT 9999 FEW030 TEMPO 2009/2015 02015G25KT

4,000以上の空港の気象観測と天気予報(METAR報とTAF報)

利用可能な観測所は地図上に黄色い丸と赤い丸で示す。

丸の上にカーソルを重ねると観測所名を参照できる。

次にクリックすると気象観測と天気予報を参照できる。

マップの切り替え:黒色「×」印の緑ボタンをクリックして拡大、「-」印の緑ボタンをクリックして縮小、緑色の三角印をクリックして隣りの地図に切り替え


METAR-TAF: